Time;durP1;ratioP1;P1;durP2;ratioP2;P2;SDS_P1;SDS_P2;PMS_P1;PMS_P2;Temp;Humidity;BMP_temperature;BMP_pressure;BME280_temperature;BME280_humidity;BME280_pressure;Samples;Min_cycle;Max_cycle;Signal;HPM_P1;HPM_P2
2023/07/08 00:00:50;;;;;;;0.50;0.20;;;;;;;21.05;61.30;100251.84;5023005;28;20487;-50
2023/07/08 00:03:17;;;;;;;0.50;0.20;;;;;;;20.92;61.76;100253.72;5032090;28;20463;-50
2023/07/08 00:05:46;;;;;;;0.50;0.30;;;;;;;20.87;62.43;100259.47;5032223;28;20467;-50
2023/07/08 00:08:16;;;;;;;0.50;0.20;;;;;;;21.04;61.31;100268.19;5031707;28;20957;-50
2023/07/08 00:10:43;;;;;;;0.50;0.20;;;;;;;21.10;61.57;100263.19;5021923;28;20511;-49
2023/07/08 00:13:10;;;;;;;0.50;0.20;;;;;;;21.04;61.96;100273.59;5017688;28;20903;-50
2023/07/08 00:15:38;;;;;;;0.50;0.20;;;;;;;21.00;61.60;100268.41;5031811;28;20494;-50
2023/07/08 00:18:13;;;;;;;0.50;0.20;;;;;;;21.00;61.35;100272.97;5031906;28;20501;-50
2023/07/08 00:20:49;;;;;;;0.50;0.20;;;;;;;21.05;61.38;100278.03;5031822;28;20912;-50
2023/07/08 00:23:16;;;;;;;0.50;0.20;;;;;;;20.64;62.92;100276.44;5026821;28;20471;-50
2023/07/08 00:25:43;;;;;;;0.50;0.20;;;;;;;20.81;62.67;100276.09;5031750;28;20467;-49
2023/07/08 00:28:13;;;;;;;0.50;0.20;;;;;;;20.65;63.16;100278.16;5023157;28;20513;-50
2023/07/08 00:30:40;;;;;;;0.50;0.20;;;;;;;20.77;62.79;100279.13;5021774;28;20544;-50
2023/07/08 00:33:06;;;;;;;0.50;0.30;;;;;;;20.73;63.29;100281.19;5017259;28;20555;-50
2023/07/08 00:35:36;;;;;;;0.50;0.20;;;;;;;20.54;64.65;100269.94;5030858;28;20502;-50
2023/07/08 00:38:17;;;;;;;0.50;0.20;;;;;;;20.31;65.18;100255.34;5031650;28;21075;-50
2023/07/08 00:41:06;;;;;;;0.50;0.20;;;;;;;20.48;64.80;100267.69;5031583;28;20566;-50
2023/07/08 00:43:38;;;;;;;0.50;0.20;;;;;;;20.57;64.67;100267.91;5020462;28;20976;-50
2023/07/08 00:46:29;;;;;;;0.50;0.20;;;;;;;20.67;64.32;100270.81;5026681;28;20468;-50
2023/07/08 00:49:08;;;;;;;0.50;0.20;;;;;;;20.39;65.43;100271.84;5014402;28;20508;-49
2023/07/08 00:51:39;;;;;;;0.50;0.20;;;;;;;20.09;66.59;100250.53;5020040;28;20522;-49
2023/07/08 00:54:12;;;;;;;0.50;0.20;;;;;;;20.12;67.28;100248.50;5020257;28;20796;-50
2023/07/08 00:56:48;;;;;;;0.50;0.20;;;;;;;20.36;66.50;100248.63;5020091;28;20473;-50
2023/07/08 00:59:24;;;;;;;0.50;0.20;;;;;;;20.95;64.98;100256.19;5019940;28;20531;-50
2023/07/08 01:01:53;;;;;;;0.93;0.80;;;;;;;20.88;63.34;100231.47;5026187;28;20470;-50
2023/07/08 01:04:29;;;;;;;0.50;0.20;;;;;;;20.66;64.21;100212.34;5035364;28;20546;-50
2023/07/08 01:06:59;;;;;;;0.50;0.30;;;;;;;20.38;65.11;100181.88;5027946;28;20514;-50
2023/07/08 01:09:43;;;;;;;0.50;0.20;;;;;;;20.28;64.34;100182.63;5024552;28;20527;-49
2023/07/08 01:12:14;;;;;;;0.50;0.20;;;;;;;20.56;63.78;100192.38;5015632;28;21020;-50
2023/07/08 01:14:43;;;;;;;0.50;0.20;;;;;;;20.77;63.26;100211.59;5023273;28;20464;-49
2023/07/08 01:17:13;;;;;;;1.13;1.03;;;;;;;21.08;62.27;100226.44;5023295;28;20473;-50
2023/07/08 01:19:42;;;;;;;0.50;0.30;;;;;;;21.36;60.34;100247.78;5031146;28;21034;-50
2023/07/08 01:22:09;;;;;;;0.50;0.20;;;;;;;21.46;60.07;100254.25;5023189;28;21008;-51
2023/07/08 01:24:42;;;;;;;0.50;0.20;;;;;;;21.71;59.28;100252.41;5023014;28;20539;-50
2023/07/08 01:27:13;;;;;;;0.50;0.20;;;;;;;21.37;60.36;100240.53;5028763;28;20941;-49
2023/07/08 01:29:39;;;;;;;0.50;0.20;;;;;;;21.34;60.15;100240.78;5034363;28;20542;-49
2023/07/08 01:32:06;;;;;;;0.77;0.77;;;;;;;21.36;60.65;100236.09;5034595;28;20964;-50
2023/07/08 01:34:36;;;;;;;0.50;0.20;;;;;;;21.58;61.02;100241.66;5030353;28;20480;-51
2023/07/08 01:37:05;;;;;;;0.50;0.20;;;;;;;21.74;60.32;100249.47;5034486;28;21062;-50
2023/07/08 01:39:32;;;;;;;0.50;0.20;;;;;;;21.51;60.29;100246.66;5034111;28;21075;-49
2023/07/08 01:41:59;;;;;;;0.50;0.20;;;;;;;21.23;61.43;100246.94;5030375;28;20551;-49
2023/07/08 01:44:28;;;;;;;0.50;0.20;;;;;;;21.17;61.44;100242.00;5022269;28;20963;-49
2023/07/08 01:47:08;;;;;;;0.50;0.20;;;;;;;21.11;62.43;100248.72;5019375;28;20478;-49
2023/07/08 01:49:37;;;;;;;0.50;0.30;;;;;;;20.85;63.24;100242.50;5031503;28;20489;-50
2023/07/08 01:52:04;;;;;;;0.50;0.20;;;;;;;20.32;65.44;100246.25;5034383;28;20467;-49
2023/07/08 01:54:31;;;;;;;0.50;0.20;;;;;;;20.33;65.77;100235.34;5033567;28;20561;-50
2023/07/08 01:56:58;;;;;;;0.50;0.20;;;;;;;20.67;64.61;100239.25;5026439;28;20468;-49
2023/07/08 01:59:25;;;;;;;0.50;0.20;;;;;;;20.62;64.56;100240.56;5026268;28;20503;-49
2023/07/08 02:01:54;;;;;;;0.50;0.30;;;;;;;20.47;65.39;100242.50;5025360;28;20546;-50
2023/07/08 02:04:23;;;;;;;0.50;0.20;;;;;;;20.52;65.52;100234.06;5018873;28;20506;-49
2023/07/08 02:06:54;;;;;;;0.50;0.20;;;;;;;20.39;66.29;100231.34;5025185;28;20463;-50
2023/07/08 02:09:22;;;;;;;0.50;0.20;;;;;;;20.17;67.20;100223.91;5025523;28;20529;-49
2023/07/08 02:11:48;;;;;;;0.50;0.20;;;;;;;19.88;68.70;100225.91;5033553;28;20554;-49
2023/07/08 02:14:15;;;;;;;0.50;0.20;;;;;;;19.82;69.08;100220.91;5027545;28;20478;-49
2023/07/08 02:16:41;;;;;;;0.50;0.20;;;;;;;19.76;68.95;100213.25;5024003;28;20839;-50
2023/07/08 02:19:09;;;;;;;0.50;0.20;;;;;;;19.81;68.88;100206.56;5033790;28;20499;-49
2023/07/08 02:21:35;;;;;;;0.50;0.20;;;;;;;20.05;67.86;100200.44;5022189;28;20474;-50
2023/07/08 02:24:02;;;;;;;0.50;0.20;;;;;;;20.12;67.32;100199.03;5033799;28;20585;-49
2023/07/08 02:26:31;;;;;;;0.50;0.20;;;;;;;20.26;66.77;100203.47;5033518;28;20470;-49
2023/07/08 02:28:58;;;;;;;0.50;0.20;;;;;;;20.27;67.18;100199.81;5033354;28;20487;-50
2023/07/08 02:31:26;;;;;;;0.50;0.30;;;;;;;20.51;66.00;100206.22;5061646;22;20875;-50
2023/07/08 02:33:53;;;;;;;0.50;0.20;;;;;;;20.71;64.84;100202.09;5045002;28;20478;-50
2023/07/08 02:36:20;;;;;;;0.50;0.20;;;;;;;20.43;66.10;100207.75;5039936;28;20467;-50
2023/07/08 02:38:47;;;;;;;0.50;0.20;;;;;;;20.32;66.81;100205.75;5052805;28;20905;-50
2023/07/08 02:41:13;;;;;;;0.50;0.20;;;;;;;20.18;67.69;100211.25;5039613;28;20513;-51
2023/07/08 02:43:40;;;;;;;0.50;0.20;;;;;;;20.20;67.53;100212.88;5041754;28;20487;-50
2023/07/08 02:46:07;;;;;;;0.50;0.20;;;;;;;19.98;68.22;100207.22;5053740;28;20524;-50
2023/07/08 02:48:33;;;;;;;0.50;0.20;;;;;;;20.28;68.25;100206.94;5038752;28;20491;-49
2023/07/08 02:51:05;;;;;;;0.50;0.30;;;;;;;20.18;68.29;100205.88;5041934;28;21002;-51
2023/07/08 02:53:31;;;;;;;2.73;2.57;;;;;;;20.10;68.40;100209.94;5033417;28;20488;-50
2023/07/08 02:55:58;;;;;;;0.50;0.20;;;;;;;20.04;68.79;100213.09;5047996;28;20528;-50
2023/07/08 02:58:24;;;;;;;0.50;0.20;;;;;;;20.10;68.32;100212.66;5045656;28;20526;-50
2023/07/08 03:00:52;;;;;;;0.50;0.20;;;;;;;19.98;69.17;100216.19;5047963;28;20566;-51
2023/07/08 03:03:18;;;;;;;0.50;0.20;;;;;;;20.21;67.67;100224.53;5041256;28;20473;-51
2023/07/08 03:05:54;;;;;;;0.50;0.20;;;;;;;20.25;67.73;100223.34;5042066;28;20466;-50
2023/07/08 03:08:20;;;;;;;0.50;0.20;;;;;;;20.03;68.77;100234.78;5039289;28;20457;-51
2023/07/08 03:10:53;;;;;;;0.50;0.20;;;;;;;20.24;67.76;100233.28;5041540;28;20496;-51
2023/07/08 03:13:20;;;;;;;0.50;0.20;;;;;;;20.13;67.94;100234.03;5045932;28;20977;-51
2023/07/08 03:15:46;;;;;;;0.50;0.20;;;;;;;20.22;67.62;100237.06;5036985;28;20953;-50
2023/07/08 03:18:13;;;;;;;0.50;0.20;;;;;;;20.13;67.50;100227.75;5044053;28;21057;-50
2023/07/08 03:20:40;;;;;;;0.50;0.20;;;;;;;20.00;68.38;100232.28;5017249;28;20862;-50
2023/07/08 03:23:06;;;;;;;0.50;0.20;;;;;;;20.01;68.49;100231.28;5040778;28;20575;-51
2023/07/08 03:25:35;;;;;;;0.50;0.20;;;;;;;19.89;69.19;100230.31;5044926;28;20804;-50
2023/07/08 03:28:05;;;;;;;0.50;0.20;;;;;;;19.97;68.92;100235.19;5038643;28;21020;-49
2023/07/08 03:30:33;;;;;;;0.50;0.20;;;;;;;20.09;68.22;100239.75;5041283;28;20493;-50
2023/07/08 03:33:00;;;;;;;0.50;0.30;;;;;;;20.12;68.19;100242.22;5028544;28;20468;-50
2023/07/08 03:35:26;;;;;;;0.50;0.20;;;;;;;20.03;67.86;100240.19;5036500;28;20508;-50
2023/07/08 03:37:53;;;;;;;0.50;0.20;;;;;;;19.99;67.81;100244.91;5049567;28;20491;-50
2023/07/08 03:40:19;;;;;;;0.50;0.20;;;;;;;19.95;67.90;100242.53;5031966;28;20538;-51
2023/07/08 03:42:45;;;;;;;0.50;0.20;;;;;;;19.82;68.41;100239.78;5045474;28;20476;-51
2023/07/08 03:45:12;;;;;;;0.50;0.20;;;;;;;19.73;69.70;100243.97;5041402;28;20565;-50
2023/07/08 03:47:38;;;;;;;0.50;0.20;;;;;;;19.60;71.16;100237.69;5045354;28;20466;-50
2023/07/08 03:50:06;;;;;;;0.50;0.20;;;;;;;19.47;71.73;100234.03;5034368;28;20569;-50
2023/07/08 03:52:33;;;;;;;0.50;0.20;;;;;;;19.59;71.75;100248.56;5037374;28;21049;-50
2023/07/08 03:55:00;;;;;;;0.50;0.20;;;;;;;19.63;72.06;100245.56;5032737;28;20477;-51
2023/07/08 03:57:26;;;;;;;0.50;0.30;;;;;;;19.68;71.52;100248.81;5041316;28;20466;-51
2023/07/08 03:59:53;;;;;;;0.50;0.20;;;;;;;19.61;71.53;100254.75;5044572;28;20494;-51
2023/07/08 04:02:19;;;;;;;0.50;0.30;;;;;;;19.85;71.18;100247.66;5038258;28;21028;-50
2023/07/08 04:04:46;;;;;;;0.50;0.20;;;;;;;19.59;71.37;100252.13;5040012;28;20470;-51
2023/07/08 04:07:13;;;;;;;0.50;0.20;;;;;;;19.71;71.01;100248.59;5035739;28;20517;-51
2023/07/08 04:09:39;;;;;;;0.50;0.20;;;;;;;19.71;71.88;100254.00;5036238;28;20465;-50
2023/07/08 04:12:06;;;;;;;0.50;0.20;;;;;;;19.54;72.24;100256.94;5049925;28;20466;-50
2023/07/08 04:14:32;;;;;;;0.50;0.20;;;;;;;19.58;72.32;100255.78;5032123;28;20557;-51
2023/07/08 04:16:59;;;;;;;0.50;0.20;;;;;;;19.58;72.48;100263.88;5046197;28;20826;-50
2023/07/08 04:19:26;;;;;;;0.50;0.20;;;;;;;19.58;71.58;100255.78;5010711;28;20574;-51
2023/07/08 04:21:53;;;;;;;0.50;0.20;;;;;;;19.48;72.68;100258.22;5042468;28;20516;-50
2023/07/08 04:24:20;;;;;;;0.50;0.20;;;;;;;19.51;73.51;100252.59;5040781;28;20469;-50
2023/07/08 04:26:48;;;;;;;0.50;0.20;;;;;;;19.36;74.25;100244.66;5040039;28;20477;-51
2023/07/08 04:29:19;;;;;;;0.50;0.20;;;;;;;19.53;73.95;100247.97;5038414;28;20459;-51
2023/07/08 04:31:46;;;;;;;0.50;0.20;;;;;;;19.69;73.53;100255.06;5039560;28;20502;-50
2023/07/08 04:34:14;;;;;;;0.50;0.20;;;;;;;19.63;73.98;100258.19;5044199;28;20466;-50
2023/07/08 04:36:41;;;;;;;0.50;0.20;;;;;;;19.68;73.71;100256.91;5039508;28;20499;-50
2023/07/08 04:39:09;;;;;;;0.50;0.20;;;;;;;19.66;73.89;100266.94;5046959;28;20494;-50
2023/07/08 04:41:40;;;;;;;0.50;0.20;;;;;;;19.66;75.38;100261.53;5036027;28;20492;-50
2023/07/08 04:44:07;;;;;;;0.50;0.20;;;;;;;19.81;74.05;100251.56;5044389;28;21026;-51
2023/07/08 04:46:39;;;;;;;0.47;0.20;;;;;;;19.80;74.37;100256.09;5029854;28;20471;-51
2023/07/08 04:49:09;;;;;;;0.50;0.20;;;;;;;19.95;74.32;100258.72;5042234;28;20498;-51
2023/07/08 04:51:37;;;;;;;0.50;0.20;;;;;;;19.97;73.60;100256.78;5032687;28;20563;-52
2023/07/08 04:54:04;;;;;;;0.50;0.20;;;;;;;20.06;74.19;100253.47;5039434;28;20516;-52
2023/07/08 04:56:40;;;;;;;0.50;0.30;;;;;;;20.24;73.17;100248.63;5040356;28;20514;-52
2023/07/08 04:59:11;;;;;;;0.50;0.20;;;;;;;20.27;72.96;100259.19;5051418;28;20571;-52
2023/07/08 05:01:38;;;;;;;0.50;0.20;;;;;;;20.42;72.84;100260.84;5036681;28;20902;-52
2023/07/08 05:04:06;;;;;;;0.50;0.20;;;;;;;20.33;72.99;100270.44;5047790;28;20990;-51
2023/07/08 05:06:34;;;;;;;0.50;0.20;;;;;;;20.41;73.34;100272.59;5033167;28;20471;-52
2023/07/08 05:09:02;;;;;;;0.50;0.20;;;;;;;20.31;73.17;100264.31;5044019;28;20973;-52
2023/07/08 05:11:29;;;;;;;0.50;0.20;;;;;;;20.50;72.75;100273.84;5046775;28;20522;-51
2023/07/08 05:13:55;;;;;;;0.50;0.20;;;;;;;20.59;72.87;100281.31;5037399;28;20966;-52
2023/07/08 05:16:22;;;;;;;0.40;0.20;;;;;;;20.37;72.38;100285.47;5041995;28;20473;-52
2023/07/08 05:18:49;;;;;;;0.40;0.20;;;;;;;20.45;71.71;100278.72;5043589;28;20500;-52
2023/07/08 05:21:17;;;;;;;0.50;0.20;;;;;;;20.50;70.10;100280.09;5047978;28;20490;-52
2023/07/08 05:23:44;;;;;;;0.50;0.20;;;;;;;20.49;70.86;100283.78;5040217;28;20467;-52
2023/07/08 05:26:11;;;;;;;0.50;0.20;;;;;;;20.50;71.35;100281.94;5045656;28;21023;-52
2023/07/08 05:28:37;;;;;;;0.50;0.30;;;;;;;20.33;70.17;100278.56;5035128;28;20460;-52
2023/07/08 05:31:04;;;;;;;0.50;0.20;;;;;;;20.25;70.49;100277.34;5043781;28;20533;-52
2023/07/08 05:33:31;;;;;;;0.50;0.30;;;;;;;20.33;70.20;100270.44;5046302;28;20456;-51
2023/07/08 05:35:58;;;;;;;0.50;0.20;;;;;;;20.48;70.56;100281.19;5042237;28;20947;-52
2023/07/08 05:38:26;;;;;;;0.40;0.20;;;;;;;20.55;70.14;100274.38;5043879;28;20464;-52
2023/07/08 05:40:57;;;;;;;0.50;0.20;;;;;;;21.09;68.79;100285.78;5037950;28;21024;-52
2023/07/08 05:43:25;;;;;;;0.50;0.20;;;;;;;20.86;69.75;100282.06;5038697;28;20499;-52
2023/07/08 05:45:56;;;;;;;0.50;0.20;;;;;;;20.99;69.53;100284.75;5052100;28;20473;-52
2023/07/08 05:48:38;;;;;;;0.50;0.20;;;;;;;21.06;68.42;100286.03;5034825;28;20858;-52
2023/07/08 05:51:04;;;;;;;0.50;0.20;;;;;;;21.00;68.24;100283.78;5036698;28;20482;-52
2023/07/08 05:53:31;;;;;;;0.50;0.20;;;;;;;21.22;68.19;100285.75;5047323;28;20984;-52
2023/07/08 05:55:57;;;;;;;0.50;0.20;;;;;;;21.62;66.31;100283.72;5043822;28;20947;-53
2023/07/08 05:58:23;;;;;;;0.50;0.20;;;;;;;21.75;65.46;100291.78;5043321;28;20959;-52
2023/07/08 06:00:56;;;;;;;0.50;0.20;;;;;;;22.63;64.22;100292.28;5040003;28;20987;-52
2023/07/08 06:03:24;;;;;;;0.50;0.20;;;;;;;23.00;62.25;100288.38;5043174;28;20463;-52
2023/07/08 06:05:52;;;;;;;3.43;1.80;;;;;;;22.64;63.35;100302.13;5041772;28;20473;-52
2023/07/08 06:08:19;;;;;;;0.50;0.20;;;;;;;22.08;65.04;100304.69;5047022;28;20927;-52
2023/07/08 06:10:45;;;;;;;0.50;0.27;;;;;;;21.99;65.81;100313.44;5036315;28;20554;-52
2023/07/08 06:13:12;;;;;;;0.50;0.20;;;;;;;22.26;65.47;100319.50;5043817;28;20544;-52
2023/07/08 06:15:39;;;;;;;0.50;0.20;;;;;;;22.14;66.57;100326.72;5031347;28;21027;-52
2023/07/08 06:18:06;;;;;;;0.50;0.20;;;;;;;22.43;65.83;100342.59;5041290;28;20463;-53
2023/07/08 06:20:32;;;;;;;0.50;0.20;;;;;;;22.41;65.08;100344.56;5042360;28;20510;-52
2023/07/08 06:22:59;;;;;;;0.50;0.20;;;;;;;22.49;64.94;100342.13;5038379;28;20885;-52
2023/07/08 06:25:25;;;;;;;0.50;0.20;;;;;;;22.40;64.65;100343.69;5038325;28;20465;-52
2023/07/08 06:27:52;;;;;;;0.50;0.20;;;;;;;22.85;64.67;100345.66;5052288;28;20848;-52
2023/07/08 06:30:20;;;;;;;0.50;0.20;;;;;;;23.49;61.95;100354.94;5035796;28;20579;-52
2023/07/08 06:32:46;;;;;;;0.50;0.20;;;;;;;24.17;57.37;100370.13;5048380;28;20471;-52
2023/07/08 06:35:13;;;;;;;0.50;0.20;;;;;;;24.79;55.89;100365.78;5035860;28;20464;-52
2023/07/08 06:37:40;;;;;;;0.50;0.20;;;;;;;25.22;52.86;100372.94;5047068;28;20502;-52
2023/07/08 06:40:08;;;;;;;0.50;0.20;;;;;;;25.37;52.73;100369.75;5036344;28;20539;-52
2023/07/08 06:42:34;;;;;;;0.50;0.20;;;;;;;25.56;51.37;100387.16;5043418;28;20466;-52
2023/07/08 06:45:02;;;;;;;0.50;0.30;;;;;;;25.78;49.40;100377.94;5034840;28;20474;-53
2023/07/08 06:47:29;;;;;;;0.50;0.20;;;;;;;26.01;50.59;100367.66;5040221;28;20485;-52
2023/07/08 06:49:55;;;;;;;0.50;0.20;;;;;;;26.28;47.23;100370.56;5041530;28;20853;-52
2023/07/08 06:52:25;;;;;;;0.50;0.30;;;;;;;25.92;47.76;100380.28;5037291;28;20516;-53
2023/07/08 06:54:51;;;;;;;0.50;0.20;;;;;;;25.37;45.71;100377.91;5036145;28;20525;-53
2023/07/08 06:57:19;;;;;;;0.50;0.20;;;;;;;25.21;47.67;100361.19;5042095;28;20565;-53
2023/07/08 06:59:46;;;;;;;0.50;0.20;;;;;;;25.46;49.75;100362.59;5045343;28;20501;-53
2023/07/08 07:02:13;;;;;;;0.50;0.20;;;;;;;25.81;49.95;100364.03;5040460;28;20505;-53
2023/07/08 07:04:40;;;;;;;0.50;0.30;;;;;;;26.19;48.75;100369.56;5042045;28;20464;-53
2023/07/08 07:07:06;;;;;;;0.50;0.20;;;;;;;26.82;47.25;100364.53;5037587;28;20944;-53
2023/07/08 07:09:33;;;;;;;0.50;0.20;;;;;;;26.68;44.93;100364.13;5039594;28;20460;-53
2023/07/08 07:12:00;;;;;;;0.50;0.20;;;;;;;26.60;43.58;100370.31;5052286;28;20884;-52
2023/07/08 07:14:26;;;;;;;0.50;0.23;;;;;;;26.45;42.58;100363.56;5033034;28;20522;-53
2023/07/08 07:16:56;;;;;;;0.50;0.20;;;;;;;26.54;41.74;100359.97;5039158;28;20951;-53
2023/07/08 07:19:25;;;;;;;0.50;0.20;;;;;;;26.86;41.84;100378.72;5030771;28;20488;-52
2023/07/08 07:21:51;;;;;;;0.50;0.23;;;;;;;26.90;42.21;100376.59;5041348;28;20470;-53
2023/07/08 07:24:18;;;;;;;0.50;0.20;;;;;;;26.75;42.37;100382.50;5041762;28;20470;-53
2023/07/08 07:26:45;;;;;;;0.50;0.30;;;;;;;26.90;43.42;100392.97;5025196;28;20546;-53
2023/07/08 07:29:15;;;;;;;0.50;0.20;;;;;;;27.01;43.55;100382.78;5037293;28;20501;-53
2023/07/08 07:31:42;;;;;;;0.50;0.30;;;;;;;27.09;44.07;100376.56;5021425;28;20520;-53
2023/07/08 07:34:09;;;;;;;0.50;0.30;;;;;;;27.33;41.93;100374.19;5032148;28;20466;-53
2023/07/08 07:36:36;;;;;;;0.50;0.27;;;;;;;27.54;40.24;100371.22;5037270;28;20458;-53
2023/07/08 07:39:02;;;;;;;0.50;0.20;;;;;;;28.09;37.72;100376.69;5043957;28;20915;-53
2023/07/08 07:41:29;;;;;;;0.67;0.67;;;;;;;28.11;35.87;100380.16;5033487;28;20478;-53
2023/07/08 07:43:55;;;;;;;0.50;0.30;;;;;;;28.08;35.88;100377.69;5026019;28;20467;-53
2023/07/08 07:46:22;;;;;;;1.33;1.23;;;;;;;28.12;36.68;100372.81;5047893;28;20466;-53
2023/07/08 07:48:49;;;;;;;0.50;0.30;;;;;;;28.52;35.31;100367.75;5020472;28;20475;-53
2023/07/08 07:51:15;;;;;;;0.50;0.23;;;;;;;28.57;33.46;100364.53;5037059;28;20544;-53
2023/07/08 07:53:42;;;;;;;0.73;0.73;;;;;;;28.82;33.28;100368.34;5034209;28;20460;-53
2023/07/08 07:56:08;;;;;;;0.50;0.30;;;;;;;28.50;33.25;100357.97;5042970;28;20466;-54
2023/07/08 07:58:35;;;;;;;0.50;0.20;;;;;;;28.32;33.68;100366.19;5030451;28;20492;-53
2023/07/08 08:01:01;;;;;;;0.50;0.30;;;;;;;28.35;33.78;100357.66;5043568;28;20498;-53
2023/07/08 08:03:28;;;;;;;0.50;0.30;;;;;;;28.74;32.88;100365.53;5025053;28;20502;-53
2023/07/08 08:05:55;;;;;;;0.50;0.20;;;;;;;29.01;33.34;100357.22;5038473;28;20476;-53
2023/07/08 08:08:22;;;;;;;0.50;0.30;;;;;;;29.31;33.24;100363.22;5040646;28;20466;-53
2023/07/08 08:10:49;;;;;;;0.50;0.30;;;;;;;29.60;32.92;100362.88;5043490;28;20459;-53
2023/07/08 08:13:15;;;;;;;0.50;0.23;;;;;;;29.93;32.38;100361.13;5049044;28;20463;-53
2023/07/08 08:15:42;;;;;;;0.50;0.30;;;;;;;30.31;31.85;100356.94;5040676;28;20554;-53
2023/07/08 08:18:08;;;;;;;0.70;0.70;;;;;;;30.14;31.68;100356.03;5046504;28;20474;-53
2023/07/08 08:20:35;;;;;;;2.70;2.50;;;;;;;29.89;32.42;100357.00;5032876;28;21032;-53
2023/07/08 08:23:01;;;;;;;0.50;0.30;;;;;;;30.42;32.27;100359.34;5043957;28;20943;-53
2023/07/08 08:25:28;;;;;;;0.50;0.27;;;;;;;29.79;31.95;100357.13;5047611;28;20556;-53
2023/07/08 08:27:54;;;;;;;0.50;0.30;;;;;;;29.64;32.93;100361.53;5025927;28;20445;-53
2023/07/08 08:30:21;;;;;;;0.50;0.30;;;;;;;29.40;32.98;100362.25;5063322;23;20797;-51
2023/07/08 08:32:47;;;;;;;0.50;0.30;;;;;;;29.77;32.14;100367.41;5035631;28;20468;-50
2023/07/08 08:35:14;;;;;;;0.50;0.30;;;;;;;29.85;33.14;100370.16;5038642;28;20496;-51
2023/07/08 08:37:41;;;;;;;0.80;0.80;;;;;;;29.53;32.52;100370.03;5027067;28;20501;-50
2023/07/08 08:40:13;;;;;;;0.60;0.60;;;;;;;29.48;33.67;100373.28;5035490;28;20498;-50
2023/07/08 08:42:46;;;;;;;0.50;0.30;;;;;;;29.69;33.79;100373.69;5035351;28;20441;-50
2023/07/08 08:45:17;;;;;;;0.50;0.50;;;;;;;29.56;34.34;100383.41;5035638;28;20483;-51
2023/07/08 08:47:53;;;;;;;0.50;0.30;;;;;;;29.65;34.41;100382.44;5035166;28;20459;-51
2023/07/08 08:50:35;;;;;;;0.50;0.30;;;;;;;29.49;34.19;100378.59;5035416;28;20475;-51
2023/07/08 08:53:05;;;;;;;0.50;0.30;;;;;;;29.47;35.00;100369.69;5035623;28;20467;-51
2023/07/08 08:55:32;;;;;;;0.50;0.30;;;;;;;29.70;34.82;100375.41;5035651;28;20504;-50
2023/07/08 08:58:23;;;;;;;0.50;0.30;;;;;;;30.33;34.97;100363.97;5035197;28;20464;-51
2023/07/08 09:00:58;;;;;;;0.50;0.30;;;;;;;29.96;33.84;100369.00;5035211;28;20473;-50
2023/07/08 09:03:34;;;;;;;0.50;0.30;;;;;;;29.59;34.30;100367.50;5034982;28;20944;-50
2023/07/08 09:06:10;;;;;;;0.50;0.30;;;;;;;29.53;35.02;100362.69;5034937;28;20546;-50
2023/07/08 09:08:37;;;;;;;0.50;0.30;;;;;;;29.66;34.60;100357.59;5034821;28;20459;-50
2023/07/08 09:11:22;;;;;;;0.50;0.30;;;;;;;29.47;35.37;100353.25;5034720;28;20566;-50
2023/07/08 09:13:49;;;;;;;0.50;0.30;;;;;;;29.84;35.21;100343.78;5034919;28;20572;-50
2023/07/08 09:16:30;;;;;;;0.50;0.30;;;;;;;30.10;35.43;100349.19;5035217;28;20495;-50
2023/07/08 09:19:05;;;;;;;0.93;0.93;;;;;;;30.00;35.07;100348.44;5035031;28;20466;-50
2023/07/08 09:21:49;;;;;;;0.50;0.30;;;;;;;30.33;34.53;100344.78;5033693;28;20560;-50
2023/07/08 09:24:22;;;;;;;0.50;0.30;;;;;;;30.59;33.59;100343.75;5029732;28;20462;-51
2023/07/08 09:26:51;;;;;;;1.53;1.43;;;;;;;30.33;33.74;100339.28;5038564;28;20525;-50
2023/07/08 09:29:18;;;;;;;0.50;0.30;;;;;;;30.35;34.28;100328.13;5034585;28;20875;-51
2023/07/08 09:31:44;;;;;;;0.50;0.20;;;;;;;29.74;35.10;100326.59;5034026;28;20462;-52
2023/07/08 09:34:17;;;;;;;0.50;0.30;;;;;;;30.06;34.85;100325.88;5034763;28;20434;-53
2023/07/08 09:36:48;;;;;;;0.50;0.30;;;;;;;30.73;34.93;100326.63;5034394;28;20858;-52
2023/07/08 09:39:17;;;;;;;0.50;0.30;;;;;;;30.88;33.96;100324.03;5034787;28;20565;-49
2023/07/08 09:41:46;;;;;;;0.50;0.30;;;;;;;30.91;34.14;100334.66;5034503;28;20538;-52
2023/07/08 09:44:15;;;;;;;0.50;0.30;;;;;;;30.38;34.54;100322.31;5034639;28;20471;-51
2023/07/08 09:46:43;;;;;;;0.50;0.30;;;;;;;31.37;34.41;100321.16;5034286;28;20947;-51
2023/07/08 09:49:23;;;;;;;0.50;0.30;;;;;;;31.86;34.43;100316.34;5034603;28;20505;-50
2023/07/08 09:51:51;;;;;;;0.50;0.30;;;;;;;31.50;33.58;100315.97;5033712;28;20553;-51
2023/07/08 09:54:22;;;;;;;0.50;0.30;;;;;;;31.69;33.47;100304.53;5034333;28;20442;-53
2023/07/08 09:57:17;;;;;;;0.50;0.30;;;;;;;31.38;33.40;100304.50;5034149;28;21032;-49
2023/07/08 09:59:52;;;;;;;2.20;0.60;;;;;;;32.07;33.34;100308.31;5033915;28;20492;-52
2023/07/08 10:02:25;;;;;;;0.60;0.50;;;;;;;31.90;33.68;100312.19;5034147;28;20441;-51
2023/07/08 10:04:55;;;;;;;0.50;0.30;;;;;;;31.91;33.44;100313.03;5034321;28;20827;-50
2023/07/08 10:07:21;;;;;;;0.50;0.30;;;;;;;31.91;32.66;100304.78;5034056;28;20517;-51
2023/07/08 10:09:51;;;;;;;0.50;0.30;;;;;;;32.16;33.32;100303.56;5034126;28;20438;-51
2023/07/08 10:12:18;;;;;;;0.50;0.30;;;;;;;31.93;33.47;100303.56;5033970;28;20503;-51
2023/07/08 10:14:49;;;;;;;0.50;0.30;;;;;;;32.07;33.21;100311.06;5033890;28;20437;-51
2023/07/08 10:17:18;;;;;;;0.50;0.30;;;;;;;31.97;34.17;100307.69;5033846;28;20947;-51
2023/07/08 10:19:45;;;;;;;0.50;0.30;;;;;;;32.25;33.61;100302.50;5033731;28;21029;-51
2023/07/08 10:22:46;;;;;;;0.50;0.30;;;;;;;32.33;33.65;100305.19;5033775;28;20492;-51
2023/07/08 10:25:37;;;;;;;0.50;0.30;;;;;;;32.25;33.46;100310.75;5029500;28;20494;-51
2023/07/08 10:28:20;;;;;;;0.50;0.30;;;;;;;32.47;33.04;100299.91;5033625;28;20460;-51
2023/07/08 10:31:10;;;;;;;0.50;0.30;;;;;;;32.62;33.21;100301.69;5031180;28;20818;-51
2023/07/08 10:33:59;;;;;;;0.50;0.30;;;;;;;32.77;33.29;100312.75;5031866;28;20488;-52
2023/07/08 10:36:42;;;;;;;0.50;0.30;;;;;;;32.27;33.30;100297.66;5033465;28;20513;-53
2023/07/08 10:39:48;;;;;;;0.50;0.30;;;;;;;31.74;33.86;100301.28;5033742;28;20444;-52
2023/07/08 10:42:42;;;;;;;1.13;1.13;;;;;;;32.05;34.57;100301.25;5028093;28;20454;-51
2023/07/08 10:45:31;;;;;;;0.50;0.30;;;;;;;32.60;33.59;100297.38;5033800;28;20857;-50
2023/07/08 10:48:13;;;;;;;0.70;0.70;;;;;;;32.77;33.36;100298.13;5033279;28;20492;-52
2023/07/08 10:51:01;;;;;;;0.50;0.30;;;;;;;32.64;33.37;100294.09;5033200;28;20518;-51
2023/07/08 10:53:56;;;;;;;0.50;0.30;;;;;;;32.13;34.20;100301.19;5029613;28;20478;-51
2023/07/08 10:56:36;;;;;;;0.50;0.30;;;;;;;32.53;34.29;100297.28;5033207;28;20472;-51
2023/07/08 10:59:32;;;;;;;0.50;0.30;;;;;;;32.54;34.07;100296.25;5025880;28;20940;-52
2023/07/08 11:02:17;;;;;;;0.50;0.30;;;;;;;31.96;34.66;100294.97;5025639;28;20498;-51
2023/07/08 11:05:03;;;;;;;0.50;0.30;;;;;;;32.53;34.84;100301.94;5033318;28;20445;-52
2023/07/08 11:07:50;;;;;;;0.50;0.30;;;;;;;32.94;34.12;100303.28;5032776;28;20433;-54
2023/07/08 11:10:34;;;;;;;0.50;0.30;;;;;;;33.26;34.21;100298.44;5032846;28;20483;-53
2023/07/08 11:13:09;;;;;;;2.27;1.70;;;;;;;33.16;33.17;100300.63;5026298;28;20470;-52
2023/07/08 11:15:57;;;;;;;0.50;0.30;;;;;;;33.32;33.39;100296.84;5032696;28;20459;-52
2023/07/08 11:18:48;;;;;;;3.13;1.10;;;;;;;32.68;33.78;100291.81;5033177;28;20484;-51
2023/07/08 11:21:25;;;;;;;0.90;0.80;;;;;;;33.30;33.68;100299.75;5027101;28;21045;-51
2023/07/08 11:24:07;;;;;;;0.50;0.30;;;;;;;33.15;32.58;100297.00;5032649;28;20467;-51
2023/07/08 11:26:45;;;;;;;0.50;0.30;;;;;;;33.42;33.26;100295.50;5032674;28;20521;-51
2023/07/08 11:29:28;;;;;;;10.50;1.17;;;;;;;32.89;33.44;100297.47;5027384;28;20497;-51
2023/07/08 11:31:56;;;;;;;0.50;0.30;;;;;;;33.68;32.89;100296.91;5032319;28;20524;-54
2023/07/08 11:34:25;;;;;;;0.50;0.30;;;;;;;33.93;32.17;100295.53;5032518;28;20463;-54
2023/07/08 11:36:52;;;;;;;0.50;0.30;;;;;;;33.43;32.80;100294.47;5032092;28;20490;-53
2023/07/08 11:39:39;;;;;;;0.50;0.30;;;;;;;33.49;32.69;100293.72;5032717;28;20470;-54